Heinz Schepers — V2OM7 — position and weather

sailwx.info

Track history (hours):
 
Tides and Currents Weather Stations Pressure Air Temp Water Temp Dewpoint Dewpoint Depression Visibility Wind Speed Wind Dir Waves Ship Positions

Heinz Schepers

Last reported at 2017-Oct-16 04:00 UTC. Time now 2017-Oct-18 00:21 UTC.
Position N 36°38' W 008°07'.

Length 101 m; draft 4.7 m.

Type: Cargo ship. MMSI: 304596000.

Date/timePositionNaut miles runAvg speedWind from/ knotsBaromVisibWave heightAir tempDewpointWater temp
2017-Oct-16 04:00N 36°38' W 008°07'610.5
2017-Oct-16 03:24N 36°37' W 008°15'410.4
2017-Oct-16 03:00N 36°37' W 008°20'510.4
2017-Oct-16 02:30N 36°36' W 008°26'8 9.9
2017-Oct-16 01:42N 36°34' W 008°36'211.0
2017-Oct-16 01:30N 36°34' W 008°39'510.8
2017-Oct-16 01:00N 36°33' W 008°45'510.4
2017-Oct-16 00:30N 36°33' W 008°52'510.1
2017-Oct-16 00:00N 36°32' W 008°58'510.6
2017-Oct-15 23:30N 36°32' W 009°05'610.9
2017-Oct-15 22:55N 36°34' W 009°12'510.3
2017-Oct-15 22:25N 36°36' W 009°18'510.6
2017-Oct-15 21:54N 36°40' W 009°23'410.8
2017-Oct-15 21:30N 36°43' W 009°27'611.3
2017-Oct-15 20:59N 36°47' W 009°31'1310.7
2017-Oct-15 19:47N 36°60' W 009°35'310.8
2017-Oct-15 19:30N 37°03' W 009°36'510.9
2017-Oct-15 19:00N 37°08' W 009°38'610.8
2017-Oct-15 18:25N 37°14' W 009°39'510.4
2017-Oct-15 17:58N 37°19' W 009°41'510.0
2017-Oct-15 17:30N 37°24' W 009°42'5 9.8
2017-Oct-15 17:00N 37°28' W 009°43'5 9.9
2017-Oct-15 16:30N 37°33' W 009°45'510.0
2017-Oct-15 16:00N 37°38' W 009°46'5 9.8
2017-Oct-15 15:30N 37°43' W 009°48'5 9.8
2017-Oct-15 15:00N 37°47' W 009°49'9 8.5
2017-Oct-15 14:00N 37°56' W 009°51'4 8.7
2017-Oct-15 13:30N 37°60' W 009°53'5 9.0
2017-Oct-15 13:00N 38°04' W 009°54'5 9.4
2017-Oct-15 12:30N 38°09' W 009°55'5 9.7
2017-Oct-15 12:00N 38°14' W 009°57'6 9.7
2017-Oct-15 11:25N 38°19' W 009°59'510.3
2017-Oct-15 10:56N 38°24' W 010°00'510.7
2017-Oct-15 10:30N 38°28' W 010°02'1011.3
2017-Oct-15 09:35N 38°39' W 010°04'111.3
2017-Oct-15 09:30N 38°40' W 010°05'811.4
2017-Oct-15 08:48N 38°48' W 010°05'311.1
2017-Oct-15 08:30N 38°51' W 010°05'610.9
2017-Oct-15 07:57N 38°56' W 010°03'511.1
2017-Oct-15 07:30N 39°01' W 010°00'611.1
2017-Oct-15 07:00N 39°06' W 009°58'611.2
2017-Oct-15 06:30N 39°12' W 009°55'611.2
2017-Oct-15 06:00N 39°17' W 009°52'611.4
2017-Oct-15 05:30N 39°22' W 009°49'611.5
2017-Oct-15 05:00N 39°27' W 009°47'611.4
2017-Oct-15 04:30N 39°33' W 009°44'510.8
2017-Oct-15 04:00N 39°38' W 009°41'9411.2
2017-Oct-14 19:39N 41°03' W 008°51'411.2
2017-Oct-14 19:16N 41°06' W 008°47'311.3
2017-Oct-14 19:00N 41°08' W 008°45'4 8.0
2017-Oct-14 18:30N 41°11' W 008°41'0 0.7
2017-Oct-14 17:58N 41°12' W 008°41'0 0.0
2017-Oct-14 17:28N 41°12' W 008°41'0 0.0
2017-Oct-14 16:58N 41°12' W 008°41'0 0.0
2017-Oct-14 16:28N 41°12' W 008°41'0 0.0
2017-Oct-14 15:58N 41°12' W 008°41'0 0.0
2017-Oct-14 15:28N 41°12' W 008°41'0 0.0
2017-Oct-14 14:58N 41°12' W 008°41'0 0.0
2017-Oct-14 14:28N 41°12' W 008°41'0 0.0
2017-Oct-14 13:58N 41°12' W 008°41'0 0.0
2017-Oct-14 13:28N 41°12' W 008°41'0 0.0
2017-Oct-14 12:58N 41°12' W 008°41'0 0.0
2017-Oct-14 12:28N 41°12' W 008°41'0 0.0
2017-Oct-14 11:58N 41°12' W 008°41'0 0.0
2017-Oct-14 11:28N 41°12' W 008°41'0 0.0
2017-Oct-14 10:58N 41°12' W 008°41'0 0.0
2017-Oct-14 10:28N 41°12' W 008°41'0 0.0
2017-Oct-14 09:58N 41°12' W 008°41'0 0.6
2017-Oct-14 09:30N 41°12' W 008°41'3 6.1
2017-Oct-14 09:01N 41°10' W 008°44'713.7
2017-Oct-14 08:30N 41°13' W 008°52'710.9
2017-Oct-14 07:54N 41°19' W 008°57'13410.9
2017-Oct-13 19:41N 43°23' W 010°02'211.2
2017-Oct-13 19:30N 43°25' W 010°01'53011.0
2017-Oct-11 19:31N 51°49' W 005°57'011.3
2017-Oct-11 19:29N 51°49' W 005°57'511.0
2017-Oct-11 19:00N 51°55' W 005°55'811.3
2017-Oct-11 18:15N 52°03' W 005°51'311.5
2017-Oct-11 17:58N 52°06' W 005°50'511.8
2017-Oct-11 17:30N 52°11' W 005°49'611.9
2017-Oct-11 17:00N 52°17' W 005°49'86 4.6
2017-Oct-10 22:25N 53°33' W 004°44'2111.4
2017-Oct-10 20:36N 53°33' W 004°10'213.1
2017-Oct-10 20:29N 53°33' W 004°07'613.3
2017-Oct-10 20:00N 53°33' W 003°56'713.3
2017-Oct-10 19:30N 53°33' W 003°45'713.5
2017-Oct-10 19:00N 53°33' W 003°34'713.7
2017-Oct-10 18:30N 53°32' W 003°22'612.4
2017-Oct-10 18:00N 53°31' W 003°12'714.4
2017-Oct-10 17:30N 53°27' W 003°02'1 1.0
2017-Oct-10 16:59N 53°27' W 003°01'1 1.4
2017-Oct-10 16:30N 53°28' W 003°02'0 0.1
2017-Oct-10 16:00N 53°28' W 003°02'0 0.0
2017-Oct-10 15:30N 53°28' W 003°02'0 0.0
2017-Oct-10 15:00N 53°28' W 003°02'0 0.0
2017-Oct-10 14:00N 53°28' W 003°02'0 0.0
2017-Oct-10 13:27N 53°28' W 003°02'0 0.0
2017-Oct-10 13:00N 53°28' W 003°02'0 0.0
2017-Oct-10 12:24N 53°28' W 003°02'0 0.0
2017-Oct-10 12:00N 53°28' W 003°02'0 0.0
2017-Oct-10 11:30N 53°28' W 003°02'0 0.6
2017-Oct-10 11:00N 53°27' W 003°01'1 1.1
2017-Oct-10 10:30N 53°27' W 003°01'0 0.8
2017-Oct-10 10:00N 53°27' W 003°01'0 0.5
2017-Oct-10 09:30N 53°26' W 003°01'2 3.7
2017-Oct-10 09:00N 53°28' W 003°03'510.1
2017-Oct-10 08:30N 53°32' W 003°08'510.0
2017-Oct-10 08:00N 53°31' W 003°17'5 9.9
2017-Oct-10 07:30N 53°32' W 003°25'612.5
2017-Oct-10 07:00N 53°31' W 003°35'713.4
2017-Oct-10 06:30N 53°31' W 003°47'510.0
2017-Oct-10 06:01N 53°31' W 003°55'5 9.5
2017-Oct-10 05:30N 53°31' W 004°03'16810.2
2017-Oct-09 13:02N 51°01' W 006°10'214.1
2017-Oct-09 12:55N 50°60' W 006°10'1114.0
2017-Oct-09 12:10N 50°50' W 006°15'213.9
2017-Oct-09 11:59N 50°47' W 006°17'713.8
2017-Oct-09 11:30N 50°41' W 006°20'713.9
2017-Oct-09 11:00N 50°34' W 006°23'713.9
2017-Oct-09 10:31N 50°28' W 006°26'913.8
2017-Oct-09 09:50N 50°19' W 006°31'411.4
2017-Oct-09 09:27N 50°15' W 006°30'612.9
2017-Oct-09 09:00N 50°09' W 006°33'713.8
2017-Oct-09 08:28N 50°02' W 006°37'1014.2
2017-Oct-09 07:46N 49°53' W 006°42'514.1
2017-Oct-09 07:25N 49°48' W 006°45'814.3
2017-Oct-09 06:52N 49°41' W 006°49'614.5
2017-Oct-09 06:29N 49°36' W 006°51'814.8
2017-Oct-09 05:59N 49°28' W 006°55'715.2
2017-Oct-09 05:30N 49°21' W 006°58'815.7
2017-Oct-09 05:00N 49°14' W 007°02'9014.7
2017-Oct-08 22:53N 47°48' W 007°43'29313.3
2017-Oct-08 00:49N 43°08' W 009°49'1211.3
2017-Oct-07 23:46N 42°56' W 009°49'105 8.2
2017-Oct-07 10:56N 41°19' W 008°54'614.3
2017-Oct-07 10:30N 41°14' W 008°50'713.4
2017-Oct-07 10:00N 41°10' W 008°43'2 4.3
2017-Oct-07 09:30N 41°12' W 008°41'0 0.0
2017-Oct-07 09:00N 41°12' W 008°41'0 0.0
2017-Oct-07 08:30N 41°12' W 008°41'0 0.0
2017-Oct-07 08:00N 41°12' W 008°41'0 0.0
2017-Oct-07 07:30N 41°12' W 008°41'0 0.0
2017-Oct-07 07:00N 41°12' W 008°41'0 0.0
2017-Oct-07 06:30N 41°12' W 008°41'0 0.0
2017-Oct-07 06:00N 41°12' W 008°41'0 0.0
2017-Oct-07 05:30N 41°12' W 008°41'0 0.0
2017-Oct-07 05:00N 41°12' W 008°41'0 0.0
2017-Oct-07 04:30N 41°12' W 008°41'0 0.0
2017-Oct-07 04:00N 41°12' W 008°41'0 0.0
2017-Oct-07 03:30N 41°12' W 008°41'0 0.0
2017-Oct-07 03:00N 41°12' W 008°41'0 0.6
2017-Oct-07 02:31N 41°11' W 008°41'3 6.3
2017-Oct-07 02:01N 41°09' W 008°44'2 4.9
2017-Oct-07 01:31N 41°09' W 008°47'0 0.4
2017-Oct-07 00:59N 41°09' W 008°47'0 0.0
2017-Oct-07 00:29N 41°09' W 008°47'0 0.0
2017-Oct-06 23:56N 41°09' W 008°47'0 0.0
2017-Oct-06 23:29N 41°09' W 008°47'0 0.0
2017-Oct-06 22:56N 41°09' W 008°47'0 0.0
2017-Oct-06 22:29N 41°09' W 008°47'0 0.0
2017-Oct-06 21:59N 41°09' W 008°47'0 0.0
2017-Oct-06 21:29N 41°09' W 008°47'0 0.0
2017-Oct-06 20:59N 41°09' W 008°47'0 0.0
2017-Oct-06 20:29N 41°09' W 008°47'0 0.0
2017-Oct-06 19:56N 41°09' W 008°47'0 0.0
2017-Oct-06 19:20N 41°09' W 008°47'0 0.0
2017-Oct-06 18:59N 41°09' W 008°47'0 0.1
2017-Oct-06 18:29N 41°09' W 008°47'0 0.1
2017-Oct-06 18:00N 41°09' W 008°47'0 0.0
2017-Oct-06 17:26N 41°09' W 008°47'0 0.0
2017-Oct-06 17:00N 41°09' W 008°47'0 0.0
2017-Oct-06 16:30N 41°09' W 008°47'0 0.0
2017-Oct-06 15:58N 41°09' W 008°47'0 0.0
2017-Oct-06 15:28N 41°09' W 008°47'0 0.0
2017-Oct-06 14:58N 41°09' W 008°47'0 0.0
2017-Oct-06 14:28N 41°09' W 008°47'0 0.1
2017-Oct-06 13:58N 41°09' W 008°47'0 0.0
2017-Oct-06 13:28N 41°09' W 008°47'0 0.0
2017-Oct-06 12:58N 41°09' W 008°47'0 0.0
2017-Oct-06 12:28N 41°09' W 008°47'0 0.0
2017-Oct-06 11:55N 41°09' W 008°47'0 0.0
2017-Oct-06 11:25N 41°09' W 008°47'0 0.0
2017-Oct-06 10:58N 41°09' W 008°47'0 0.0
2017-Oct-06 10:25N 41°09' W 008°47'0 0.0
2017-Oct-06 09:58N 41°09' W 008°47'0 0.0
2017-Oct-06 09:28N 41°09' W 008°47'0 0.2
2017-Oct-06 09:00N 41°09' W 008°47'10 9.4
2017-Oct-06 08:00N 41°01' W 008°54'1510.3
2017-Oct-06 06:32N 40°48' W 009°04'110.4
2017-Oct-06 06:27N 40°47' W 009°04'710.5
2017-Oct-06 05:45N 40°41' W 009°08'310.6
2017-Oct-06 05:30N 40°38' W 009°09'510.5
2017-Oct-06 04:59N 40°33' W 009°12'510.5
2017-Oct-06 04:30N 40°28' W 009°14'510.7
2017-Oct-06 04:00N 40°24' W 009°17'  
Track history (hours):
 
Tides and Currents Weather Stations Pressure Air Temp Water Temp Dewpoint Dewpoint Depression Visibility Wind Speed Wind Dir Waves Ship Positions

Heinz Schepers

Last reported at 2017-Oct-16 04:00 UTC. Time now 2017-Oct-18 00:21 UTC.
Position N 36°38' W 008°07'.

Length 101 m; draft 4.7 m.

Type: Cargo ship. MMSI: 304596000.

Date/timePositionNaut miles runAvg speedWind from/ knotsBaromVisibWave heightAir tempDewpointWater temp
2017-Oct-16 04:00N 36°38' W 008°07'610.5
2017-Oct-16 03:24N 36°37' W 008°15'410.4
2017-Oct-16 03:00N 36°37' W 008°20'510.4
2017-Oct-16 02:30N 36°36' W 008°26'8 9.9
2017-Oct-16 01:42N 36°34' W 008°36'211.0
2017-Oct-16 01:30N 36°34' W 008°39'510.8
2017-Oct-16 01:00N 36°33' W 008°45'510.4
2017-Oct-16 00:30N 36°33' W 008°52'510.1
2017-Oct-16 00:00N 36°32' W 008°58'510.6
2017-Oct-15 23:30N 36°32' W 009°05'610.9
2017-Oct-15 22:55N 36°34' W 009°12'510.3
2017-Oct-15 22:25N 36°36' W 009°18'510.6
2017-Oct-15 21:54N 36°40' W 009°23'410.8
2017-Oct-15 21:30N 36°43' W 009°27'611.3
2017-Oct-15 20:59N 36°47' W 009°31'1310.7
2017-Oct-15 19:47N 36°60' W 009°35'310.8
2017-Oct-15 19:30N 37°03' W 009°36'510.9
2017-Oct-15 19:00N 37°08' W 009°38'610.8
2017-Oct-15 18:25N 37°14' W 009°39'510.4
2017-Oct-15 17:58N 37°19' W 009°41'510.0
2017-Oct-15 17:30N 37°24' W 009°42'5 9.8
2017-Oct-15 17:00N 37°28' W 009°43'5 9.9
2017-Oct-15 16:30N 37°33' W 009°45'510.0
2017-Oct-15 16:00N 37°38' W 009°46'5 9.8
2017-Oct-15 15:30N 37°43' W 009°48'5 9.8
2017-Oct-15 15:00N 37°47' W 009°49'9 8.5
2017-Oct-15 14:00N 37°56' W 009°51'4 8.7
2017-Oct-15 13:30N 37°60' W 009°53'5 9.0
2017-Oct-15 13:00N 38°04' W 009°54'5 9.4
2017-Oct-15 12:30N 38°09' W 009°55'5 9.7
2017-Oct-15 12:00N 38°14' W 009°57'6 9.7
2017-Oct-15 11:25N 38°19' W 009°59'510.3
2017-Oct-15 10:56N 38°24' W 010°00'510.7
2017-Oct-15 10:30N 38°28' W 010°02'1011.3
2017-Oct-15 09:35N 38°39' W 010°04'111.3
2017-Oct-15 09:30N 38°40' W 010°05'811.4
2017-Oct-15 08:48N 38°48' W 010°05'311.1
2017-Oct-15 08:30N 38°51' W 010°05'610.9
2017-Oct-15 07:57N 38°56' W 010°03'511.1
2017-Oct-15 07:30N 39°01' W 010°00'611.1
2017-Oct-15 07:00N 39°06' W 009°58'611.2
2017-Oct-15 06:30N 39°12' W 009°55'611.2
2017-Oct-15 06:00N 39°17' W 009°52'611.4
2017-Oct-15 05:30N 39°22' W 009°49'611.5
2017-Oct-15 05:00N 39°27' W 009°47'611.4
2017-Oct-15 04:30N 39°33' W 009°44'510.8
2017-Oct-15 04:00N 39°38' W 009°41'9411.2
2017-Oct-14 19:39N 41°03' W 008°51'411.2
2017-Oct-14 19:16N 41°06' W 008°47'311.3
2017-Oct-14 19:00N 41°08' W 008°45'4 8.0
2017-Oct-14 18:30N 41°11' W 008°41'0 0.7
2017-Oct-14 17:58N 41°12' W 008°41'0 0.0
2017-Oct-14 17:28N 41°12' W 008°41'0 0.0
2017-Oct-14 16:58N 41°12' W 008°41'0 0.0
2017-Oct-14 16:28N 41°12' W 008°41'0 0.0
2017-Oct-14 15:58N 41°12' W 008°41'0 0.0
2017-Oct-14 15:28N 41°12' W 008°41'0 0.0
2017-Oct-14 14:58N 41°12' W 008°41'0 0.0
2017-Oct-14 14:28N 41°12' W 008°41'0 0.0
2017-Oct-14 13:58N 41°12' W 008°41'0 0.0
2017-Oct-14 13:28N 41°12' W 008°41'0 0.0
2017-Oct-14 12:58N 41°12' W 008°41'0 0.0
2017-Oct-14 12:28N 41°12' W 008°41'0 0.0
2017-Oct-14 11:58N 41°12' W 008°41'0 0.0
2017-Oct-14 11:28N 41°12' W 008°41'0 0.0
2017-Oct-14 10:58N 41°12' W 008°41'0 0.0
2017-Oct-14 10:28N 41°12' W 008°41'0 0.0
2017-Oct-14 09:58N 41°12' W 008°41'0 0.6
2017-Oct-14 09:30N 41°12' W 008°41'3 6.1
2017-Oct-14 09:01N 41°10' W 008°44'713.7
2017-Oct-14 08:30N 41°13' W 008°52'710.9
2017-Oct-14 07:54N 41°19' W 008°57'13410.9
2017-Oct-13 19:41N 43°23' W 010°02'211.2
2017-Oct-13 19:30N 43°25' W 010°01'53011.0
2017-Oct-11 19:31N 51°49' W 005°57'011.3
2017-Oct-11 19:29N 51°49' W 005°57'511.0
2017-Oct-11 19:00N 51°55' W 005°55'811.3
2017-Oct-11 18:15N 52°03' W 005°51'311.5
2017-Oct-11 17:58N 52°06' W 005°50'511.8
2017-Oct-11 17:30N 52°11' W 005°49'611.9
2017-Oct-11 17:00N 52°17' W 005°49'86 4.6
2017-Oct-10 22:25N 53°33' W 004°44'2111.4
2017-Oct-10 20:36N 53°33' W 004°10'213.1
2017-Oct-10 20:29N 53°33' W 004°07'613.3
2017-Oct-10 20:00N 53°33' W 003°56'713.3
2017-Oct-10 19:30N 53°33' W 003°45'713.5
2017-Oct-10 19:00N 53°33' W 003°34'713.7
2017-Oct-10 18:30N 53°32' W 003°22'612.4
2017-Oct-10 18:00N 53°31' W 003°12'714.4
2017-Oct-10 17:30N 53°27' W 003°02'1 1.0
2017-Oct-10 16:59N 53°27' W 003°01'1 1.4
2017-Oct-10 16:30N 53°28' W 003°02'0 0.1
2017-Oct-10 16:00N 53°28' W 003°02'0 0.0
2017-Oct-10 15:30N 53°28' W 003°02'0 0.0
2017-Oct-10 15:00N 53°28' W 003°02'0 0.0
2017-Oct-10 14:00N 53°28' W 003°02'0 0.0
2017-Oct-10 13:27N 53°28' W 003°02'0 0.0
2017-Oct-10 13:00N 53°28' W 003°02'0 0.0
2017-Oct-10 12:24N 53°28' W 003°02'0 0.0
2017-Oct-10 12:00N 53°28' W 003°02'0 0.0
2017-Oct-10 11:30N 53°28' W 003°02'0 0.6
2017-Oct-10 11:00N 53°27' W 003°01'1 1.1
2017-Oct-10 10:30N 53°27' W 003°01'0 0.8
2017-Oct-10 10:00N 53°27' W 003°01'0 0.5
2017-Oct-10 09:30N 53°26' W 003°01'2 3.7
2017-Oct-10 09:00N 53°28' W 003°03'510.1
2017-Oct-10 08:30N 53°32' W 003°08'510.0
2017-Oct-10 08:00N 53°31' W 003°17'5 9.9
2017-Oct-10 07:30N 53°32' W 003°25'612.5
2017-Oct-10 07:00N 53°31' W 003°35'713.4
2017-Oct-10 06:30N 53°31' W 003°47'510.0
2017-Oct-10 06:01N 53°31' W 003°55'5 9.5
2017-Oct-10 05:30N 53°31' W 004°03'16810.2
2017-Oct-09 13:02N 51°01' W 006°10'214.1
2017-Oct-09 12:55N 50°60' W 006°10'1114.0
2017-Oct-09 12:10N 50°50' W 006°15'213.9
2017-Oct-09 11:59N 50°47' W 006°17'713.8
2017-Oct-09 11:30N 50°41' W 006°20'713.9
2017-Oct-09 11:00N 50°34' W 006°23'713.9
2017-Oct-09 10:31N 50°28' W 006°26'913.8
2017-Oct-09 09:50N 50°19' W 006°31'411.4
2017-Oct-09 09:27N 50°15' W 006°30'612.9
2017-Oct-09 09:00N 50°09' W 006°33'713.8
2017-Oct-09 08:28N 50°02' W 006°37'1014.2
2017-Oct-09 07:46N 49°53' W 006°42'514.1
2017-Oct-09 07:25N 49°48' W 006°45'814.3
2017-Oct-09 06:52N 49°41' W 006°49'614.5
2017-Oct-09 06:29N 49°36' W 006°51'814.8
2017-Oct-09 05:59N 49°28' W 006°55'715.2
2017-Oct-09 05:30N 49°21' W 006°58'815.7
2017-Oct-09 05:00N 49°14' W 007°02'9014.7
2017-Oct-08 22:53N 47°48' W 007°43'29313.3
2017-Oct-08 00:49N 43°08' W 009°49'1211.3
2017-Oct-07 23:46N 42°56' W 009°49'105 8.2
2017-Oct-07 10:56N 41°19' W 008°54'614.3
2017-Oct-07 10:30N 41°14' W 008°50'713.4
2017-Oct-07 10:00N 41°10' W 008°43'2 4.3
2017-Oct-07 09:30N 41°12' W 008°41'0 0.0
2017-Oct-07 09:00N 41°12' W 008°41'0 0.0
2017-Oct-07 08:30N 41°12' W 008°41'0 0.0
2017-Oct-07 08:00N 41°12' W 008°41'0 0.0
2017-Oct-07 07:30N 41°12' W 008°41'0 0.0
2017-Oct-07 07:00N 41°12' W 008°41'0 0.0
2017-Oct-07 06:30N 41°12' W 008°41'0 0.0
2017-Oct-07 06:00N 41°12' W 008°41'0 0.0
2017-Oct-07 05:30N 41°12' W 008°41'0 0.0
2017-Oct-07 05:00N 41°12' W 008°41'0 0.0
2017-Oct-07 04:30N 41°12' W 008°41'0 0.0
2017-Oct-07 04:00N 41°12' W 008°41'0 0.0
2017-Oct-07 03:30N 41°12' W 008°41'0 0.0
2017-Oct-07 03:00N 41°12' W 008°41'0 0.6
2017-Oct-07 02:31N 41°11' W 008°41'3 6.3
2017-Oct-07 02:01N 41°09' W 008°44'2 4.9
2017-Oct-07 01:31N 41°09' W 008°47'0 0.4
2017-Oct-07 00:59N 41°09' W 008°47'0 0.0
2017-Oct-07 00:29N 41°09' W 008°47'0 0.0
2017-Oct-06 23:56N 41°09' W 008°47'0 0.0
2017-Oct-06 23:29N 41°09' W 008°47'0 0.0
2017-Oct-06 22:56N 41°09' W 008°47'0 0.0
2017-Oct-06 22:29N 41°09' W 008°47'0 0.0
2017-Oct-06 21:59N 41°09' W 008°47'0 0.0
2017-Oct-06 21:29N 41°09' W 008°47'0 0.0
2017-Oct-06 20:59N 41°09' W 008°47'0 0.0
2017-Oct-06 20:29N 41°09' W 008°47'0 0.0
2017-Oct-06 19:56N 41°09' W 008°47'0 0.0
2017-Oct-06 19:20N 41°09' W 008°47'0 0.0
2017-Oct-06 18:59N 41°09' W 008°47'0 0.1
2017-Oct-06 18:29N 41°09' W 008°47'0 0.1
2017-Oct-06 18:00N 41°09' W 008°47'0 0.0
2017-Oct-06 17:26N 41°09' W 008°47'0 0.0
2017-Oct-06 17:00N 41°09' W 008°47'0 0.0
2017-Oct-06 16:30N 41°09' W 008°47'0 0.0
2017-Oct-06 15:58N 41°09' W 008°47'0 0.0
2017-Oct-06 15:28N 41°09' W 008°47'0 0.0
2017-Oct-06 14:58N 41°09' W 008°47'0 0.0
2017-Oct-06 14:28N 41°09' W 008°47'0 0.1
2017-Oct-06 13:58N 41°09' W 008°47'0 0.0
2017-Oct-06 13:28N 41°09' W 008°47'0 0.0
2017-Oct-06 12:58N 41°09' W 008°47'0 0.0
2017-Oct-06 12:28N 41°09' W 008°47'0 0.0
2017-Oct-06 11:55N 41°09' W 008°47'0 0.0
2017-Oct-06 11:25N 41°09' W 008°47'0 0.0
2017-Oct-06 10:58N 41°09' W 008°47'0 0.0
2017-Oct-06 10:25N 41°09' W 008°47'0 0.0
2017-Oct-06 09:58N 41°09' W 008°47'0 0.0
2017-Oct-06 09:28N 41°09' W 008°47'0 0.2
2017-Oct-06 09:00N 41°09' W 008°47'10 9.4
2017-Oct-06 08:00N 41°01' W 008°54'1510.3
2017-Oct-06 06:32N 40°48' W 009°04'110.4
2017-Oct-06 06:27N 40°47' W 009°04'710.5
2017-Oct-06 05:45N 40°41' W 009°08'310.6
2017-Oct-06 05:30N 40°38' W 009°09'510.5
2017-Oct-06 04:59N 40°33' W 009°12'510.5
2017-Oct-06 04:30N 40°28' W 009°14'510.7
2017-Oct-06 04:00N 40°24' W 009°17'  

Dump ship's entire track history